Monatstabelle

Bitte in den Auwahlmenüs den gewünschte Zeiraum wählen und die Schaltfläche "Anfrage absenden" betätigen. Beginn der Aufzeichnung ist 2007 - Dezember. Vor diesem Zeitraum sind keine Daten verfügbar.

2018 - Februar

 

Datum Temperatur (°C) Luftdruck (hPa) Luftfeuchte (%) Regen
(l/m²)
Wind (km/h)
avg: min: max: avg: min: max: avg: min: max: avg: max:
01.02.2018 2,9 -3,3 7,3 1003,1 1000,4 1005,3 87 75 90 6,3 2,0 10,1
02.02.2018 0,9 -0,6 3,7 1005,9 1004,9 1006,5 89 86 90 1,4 1,0 4,5
03.02.2018 1,6 -0,5 3,5 1003,0 1001,1 1006,4 83 76 90 0,0 4,4 13,7
04.02.2018 -0,8 -3,5 5,9 1014,5 1004,6 1019,2 80 56 89 0,0 4,0 15,1
05.02.2018 -1,4 -5,5 0,9 1020,3 1019,0 1022,2 85 79 90 0,0 1,1 6,8
06.02.2018 0,4 -1,3 3,9 1013,6 1011,5 1019,1 74 63 82 0,0 13,4 19,2
07.02.2018 -0,2 -0,7 0,4 1009,2 1007,8 1011,6 88 80 89 0,0 2,5 13,4
08.02.2018 1,6 -0,1 3,1 1013,5 1009,1 1015,5 80 75 89 1,8 11,6 18,3
09.02.2018 0,5 -0,4 2,7 1014,0 1012,8 1015,8 83 75 85 0,7 3,4 10,9
10.02.2018 0,5 -1,0 1,3 1013,4 1012,5 1014,4 82 77 88 0,1 6,8 12,4
11.02.2018 1,7 -4,7 7,0 1007,3 1005,2 1012,5 73 59 89 1,4 4,8 13,5
12.02.2018 1,9 0,7 4,5 1011,0 1005,8 1013,6 82 73 89 1,1 2,3 10,6
13.02.2018 0,6 -0,4 2,7 1012,0 1010,4 1014,2 81 70 88 0,1 7,9 18,3
14.02.2018 0,3 -0,4 1,2 1014,8 1010,1 1017,6 81 74 89 0,0 10,7 17,9
15.02.2018 1,6 -3,3 6,1 1019,0 1017,4 1021,4 63 50 84 0,8 4,4 11,7
16.02.2018 3,0 0,8 5,9 1022,2 1016,9 1024,9 86 61 88 1,8 1,8 10,9
17.02.2018 2,5 0,7 6,5 1016,9 1014,8 1024,6 84 72 90 0,0 4,9 17,9
18.02.2018 0,6 -0,9 2,6 1023,0 1017,0 1024,1 86 83 90 0,8 3,3 10,9
19.02.2018 -0,5 -4,2 3,9 1017,6 1015,1 1023,0 79 63 90 0,5 4,6 14,0
20.02.2018 -1,0 -1,8 0,1 1012,1 1011,0 1015,1 89 83 90 0,0 5,3 10,6
21.02.2018 -1,4 -2,2 0,7 1015,3 1012,6 1016,1 86 79 90 0,0 11,1 15,4
22.02.2018 -1,8 -2,7 -0,5 1014,8 1014,1 1015,9 87 82 88 0,0 6,2 13,0
23.02.2018 -1,9 -3,5 0,4 1016,1 1014,4 1017,1 85 80 89 0,0 5,7 11,6
24.02.2018 -4,7 -7,0 1,2 1019,1 1017,1 1020,9 69 50 84 1,0 15,3 20,0
25.02.2018 -10,6 -15,0 -5,3 1021,0 1019,7 1022,8 70 62 77 0,0 8,4 17,1
26.02.2018 -9,5 -15,0 -6,9 1015,2 1013,4 1020,5 72 60 79 0,0 15,9 21,1
27.02.2018 -10,2 -12,4 -6,9 1012,1 1010,7 1013,8 73 60 81 0,0 14,3 23,0
28.02.2018 -12,0 -15,9 -4,9 1017,8 1013,6 1019,0 71 53 81 0,0 7,4 17,5
avg. -1,3 1014,2 80   ---
  Summe Regen: 17,8  
 
Min-Datum 28.02.2018 01.02.2018 15.02.2018 --- ---
Min-Zeit 23:56 14:40 14:18 --- ---
Minimum -15,9 1000,4 50 --- ---
 

Max-Datum

01.02.2018 16.02.2018 01.02.2018 01.02.2018 27.02.2018
Max-Zeit 11:42 22:20 07:30 17:30 12:54
Maximum 7,3 1024,9 90 6,3 23,0
 

 

  Letztes Jahr
gleiches Monat
Eistage max < 0°C 5 1
Frosttage min < 0°C 25 16
Sommertage max >=25°C 0 0
Heiße Tage max >=30°C 0 0

 

<<< nach oben >>>